UAL23 KEWR-EIDW
Flight info
| Callsign | UAL23 |
|---|---|
| Flight time | N/A |
| Altitude | 35000 |
| Route | MERIT DCT HFD DCT PUT DCT BOS DCT KANNI N343B JOOPY/M084F370 DCT 49N050W 50N040W 51N030W 52N020W DCT LIMRI DCT XETBO/N0474F370 DCT OSGAR OSGAR4L |
| Aircraft | B77W/H-SDE1E2E3FGHIJ2J3J4J5M1RWXY/LB1D1 |
Departure
| Time | 2026-05-06 08:31 |
|---|---|
| Airport | Newark Liberty International Airport (KEWR) |
Arrival
| Time | N/A |
|---|---|
| Airport | Dublin Airport (EIDW) |
| Time | Latitude | Longitude | Altitude | Speed | Heading |
|---|---|---|---|---|---|
| 2026-05-06 07:56 | 40.69805 | -74.17567 | 26 ft | 0 kts | 150° |
| 2026-05-06 08:22 | 40.69805 | -74.17568 | 27 ft | 1 kts | 150° |
| 2026-05-06 08:22 | 40.69825 | -74.17583 | 26 ft | 4 kts | 150° |
| 2026-05-06 08:22 | 40.69844 | -74.17602 | 25 ft | 4 kts | 105° |
| 2026-05-06 08:23 | 40.69840 | -74.17630 | 25 ft | 4 kts | 48° |
| 2026-05-06 08:23 | 40.69829 | -74.17645 | 25 ft | 0 kts | 40° |
| 2026-05-06 08:26 | 40.69835 | -74.17638 | 25 ft | 3 kts | 40° |
| 2026-05-06 08:26 | 40.69851 | -74.17620 | 24 ft | 3 kts | 40° |
| 2026-05-06 08:26 | 40.69875 | -74.17591 | 27 ft | 6 kts | 44° |
| 2026-05-06 08:27 | 40.69914 | -74.17538 | 27 ft | 10 kts | 44° |
| 2026-05-06 08:27 | 40.69968 | -74.17469 | 27 ft | 11 kts | 44° |
| 2026-05-06 08:27 | 40.70023 | -74.17399 | 27 ft | 11 kts | 42° |
| 2026-05-06 08:27 | 40.70092 | -74.17357 | 27 ft | 11 kts | 34° |
| 2026-05-06 08:28 | 40.70116 | -74.17256 | 27 ft | 15 kts | 92° |
| 2026-05-06 08:28 | 40.70109 | -74.17111 | 27 ft | 16 kts | 95° |
| 2026-05-06 08:28 | 40.70099 | -74.16966 | 27 ft | 16 kts | 95° |
| 2026-05-06 08:28 | 40.70089 | -74.16823 | 27 ft | 16 kts | 95° |
| 2026-05-06 08:29 | 40.70079 | -74.16678 | 26 ft | 16 kts | 95° |
| 2026-05-06 08:29 | 40.70070 | -74.16535 | 29 ft | 15 kts | 95° |
| 2026-05-06 08:29 | 40.70063 | -74.16426 | 25 ft | 7 kts | 95° |
| 2026-05-06 08:29 | 40.70035 | -74.16374 | 27 ft | 8 kts | 162° |
| 2026-05-06 08:30 | 40.69994 | -74.16386 | 25 ft | 0 kts | 205° |
| 2026-05-06 08:30 | 40.69985 | -74.16391 | 25 ft | 9 kts | 205° |
| 2026-05-06 08:30 | 40.69792 | -74.16512 | 28 ft | 63 kts | 206° |
| 2026-05-06 08:30 | 40.69181 | -74.16902 | 26 ft | 130 kts | 205° |
| 2026-05-06 08:31 | 40.68194 | -74.17528 | 43 ft | 180 kts | 205° |
| 2026-05-06 08:31 | 40.67071 | -74.18262 | 651 ft | 178 kts | 202° |
| 2026-05-06 08:31 | 40.65866 | -74.18540 | 1322 ft | 174 kts | 186° |
| 2026-05-06 08:31 | 40.64718 | -74.18858 | 1919 ft | 172 kts | 211° |
| 2026-05-06 08:32 | 40.63645 | -74.19676 | 2313 ft | 188 kts | 214° |
| 2026-05-06 08:32 | 40.62453 | -74.20636 | 2483 ft | 213 kts | 216° |
| 2026-05-06 08:32 | 40.61627 | -74.21351 | 2496 ft | 216 kts | 217° |
| 2026-05-06 08:32 | 40.60336 | -74.22372 | 2561 ft | 219 kts | 201° |
| 2026-05-06 08:33 | 40.58765 | -74.22301 | 3188 ft | 239 kts | 173° |
| 2026-05-06 08:33 | 40.56649 | -74.21085 | 4059 ft | 262 kts | 155° |
| 2026-05-06 08:33 | 40.55249 | -74.19452 | 4835 ft | 277 kts | 135° |
| 2026-05-06 08:33 | 40.54345 | -74.17165 | 5674 ft | 290 kts | 110° |
| 2026-05-06 08:34 | 40.54201 | -74.15363 | 6211 ft | 299 kts | 87° |
| 2026-05-06 08:34 | 40.56389 | -74.10791 | 7470 ft | 311 kts | 40° |
| 2026-05-06 08:34 | 40.58053 | -74.08895 | 8020 ft | 320 kts | 41° |
| 2026-05-06 08:35 | 40.59735 | -74.06953 | 8741 ft | 323 kts | 41° |
| 2026-05-06 08:35 | 40.61433 | -74.04988 | 9510 ft | 326 kts | 41° |
| 2026-05-06 08:35 | 40.63149 | -74.02997 | 10134 ft | 331 kts | 42° |
| 2026-05-06 08:35 | 40.64910 | -74.00948 | 10489 ft | 348 kts | 42° |
| 2026-05-06 08:36 | 40.66786 | -73.98759 | 10635 ft | 371 kts | 41° |
| 2026-05-06 08:36 | 40.68775 | -73.96434 | 10811 ft | 393 kts | 41° |
| 2026-05-06 08:36 | 40.70872 | -73.93976 | 11050 ft | 412 kts | 41° |
| 2026-05-06 08:36 | 40.73044 | -73.91426 | 11541 ft | 422 kts | 41° |
| 2026-05-06 08:37 | 40.75248 | -73.88833 | 12184 ft | 428 kts | 41° |
| 2026-05-06 08:37 | 40.77483 | -73.86203 | 12911 ft | 433 kts | 41° |
| 2026-05-06 08:37 | 40.79734 | -73.83548 | 13673 ft | 436 kts | 41° |
| 2026-05-06 08:37 | 40.82003 | -73.80870 | 14351 ft | 439 kts | 41° |
| 2026-05-06 08:38 | 40.84262 | -73.78201 | 15051 ft | 443 kts | 40° |
| 2026-05-06 08:38 | 40.86566 | -73.75475 | 15735 ft | 446 kts | 40° |
| 2026-05-06 08:38 | 40.88889 | -73.72727 | 16425 ft | 450 kts | 40° |
| 2026-05-06 08:38 | 40.91225 | -73.69959 | 17113 ft | 452 kts | 39° |
| 2026-05-06 08:39 | 40.93581 | -73.67166 | 17815 ft | 456 kts | 39° |
| 2026-05-06 08:39 | 40.95949 | -73.64355 | 18444 ft | 459 kts | 39° |
| 2026-05-06 08:39 | 40.98333 | -73.61522 | 19077 ft | 462 kts | 39° |
| 2026-05-06 08:39 | 41.00733 | -73.58666 | 19686 ft | 465 kts | 39° |
| 2026-05-06 08:40 | 41.03146 | -73.55794 | 20271 ft | 469 kts | 39° |
| 2026-05-06 08:40 | 41.05587 | -73.52883 | 20828 ft | 474 kts | 39° |
| 2026-05-06 08:40 | 41.08017 | -73.49984 | 21390 ft | 478 kts | 39° |
| 2026-05-06 08:40 | 41.10499 | -73.47018 | 21979 ft | 481 kts | 39° |
| 2026-05-06 08:41 | 41.13006 | -73.44020 | 22558 ft | 485 kts | 39° |
| 2026-05-06 08:41 | 41.15518 | -73.41012 | 23114 ft | 488 kts | 39° |
| 2026-05-06 08:41 | 41.18051 | -73.37976 | 23639 ft | 492 kts | 39° |
| 2026-05-06 08:41 | 41.20601 | -73.34916 | 24094 ft | 496 kts | 39° |
| 2026-05-06 08:42 | 41.23173 | -73.31826 | 24536 ft | 500 kts | 39° |
| 2026-05-06 08:42 | 41.25768 | -73.28704 | 24996 ft | 503 kts | 39° |
| 2026-05-06 08:42 | 41.28365 | -73.25576 | 25548 ft | 504 kts | 39° |
| 2026-05-06 08:42 | 41.30965 | -73.22442 | 26052 ft | 506 kts | 39° |
| 2026-05-06 08:43 | 41.33584 | -73.19284 | 26483 ft | 510 kts | 39° |
| 2026-05-06 08:43 | 41.36131 | -73.16057 | 26888 ft | 515 kts | 44° |
| 2026-05-06 08:43 | 41.38495 | -73.12432 | 27321 ft | 521 kts | 49° |
| 2026-05-06 08:43 | 41.40626 | -73.08502 | 27753 ft | 526 kts | 56° |
| 2026-05-06 08:44 | 41.42503 | -73.04301 | 28155 ft | 529 kts | 58° |
| 2026-05-06 08:44 | 41.44340 | -73.00034 | 28558 ft | 532 kts | 58° |
| 2026-05-06 08:44 | 41.46183 | -72.95741 | 28906 ft | 536 kts | 58° |
| 2026-05-06 08:44 | 41.48052 | -72.91417 | 29310 ft | 537 kts | 58° |
| 2026-05-06 08:45 | 41.49921 | -72.87127 | 29823 ft | 535 kts | 58° |
| 2026-05-06 08:45 | 41.51798 | -72.82844 | 30314 ft | 534 kts | 57° |
| 2026-05-06 08:45 | 41.53671 | -72.78578 | 30794 ft | 532 kts | 57° |
| 2026-05-06 08:45 | 41.55536 | -72.74326 | 31272 ft | 530 kts | 57° |
| 2026-05-06 08:46 | 41.57395 | -72.70084 | 31700 ft | 529 kts | 57° |
| 2026-05-06 08:46 | 41.59254 | -72.65830 | 32086 ft | 528 kts | 57° |
| 2026-05-06 08:46 | 41.61102 | -72.61593 | 32506 ft | 527 kts | 57° |
| 2026-05-06 08:46 | 41.62939 | -72.57373 | 32993 ft | 523 kts | 57° |
| 2026-05-06 08:47 | 41.64762 | -72.53188 | 33565 ft | 519 kts | 56° |
| 2026-05-06 08:47 | 41.66608 | -72.49041 | 33949 ft | 518 kts | 55° |
| 2026-05-06 08:47 | 41.68477 | -72.44909 | 34155 ft | 520 kts | 55° |
| 2026-05-06 08:47 | 41.70362 | -72.40760 | 34356 ft | 522 kts | 55° |
| 2026-05-06 08:48 | 41.72246 | -72.36604 | 34653 ft | 522 kts | 55° |
| 2026-05-06 08:48 | 41.74123 | -72.32444 | 34854 ft | 524 kts | 55° |
| 2026-05-06 08:48 | 41.75987 | -72.28298 | 34889 ft | 526 kts | 55° |
| 2026-05-06 08:49 | 41.79731 | -72.19923 | 34901 ft | 519 kts | 55° |
| 2026-05-06 08:49 | 41.83412 | -72.11661 | 34956 ft | 516 kts | 55° |
| 2026-05-06 08:50 | 41.87100 | -72.03376 | 34943 ft | 518 kts | 55° |
| 2026-05-06 08:50 | 41.90794 | -71.95048 | 34938 ft | 520 kts | 55° |
| 2026-05-06 08:51 | 41.94494 | -71.86683 | 34933 ft | 520 kts | 55° |
| 2026-05-06 08:51 | 41.98249 | -71.78413 | 34941 ft | 516 kts | 53° |